Time;durP1;ratioP1;P1;durP2;ratioP2;P2;SDS_P1;SDS_P2;PMS_P1;PMS_P2;Temp;Humidity;BMP_temperature;BMP_pressure;BME280_temperature;BME280_humidity;BME280_pressure;Samples;Min_cycle;Max_cycle;Signal;HPM_P1;HPM_P2
2021/06/16 00:00:21;;;;;;;8.95;3.38;;;14.80;99.90;;;;;;5091712;28;20044;-59
2021/06/16 00:02:47;;;;;;;12.35;3.40;;;14.80;99.90;;;;;;5095447;28;20123;-59
2021/06/16 00:05:22;;;;;;;9.65;4.00;;;14.80;99.90;;;;;;5095576;28;20132;-59
2021/06/16 00:07:48;;;;;;;10.63;3.70;;;14.70;99.90;;;;;;5095769;28;20040;-59
2021/06/16 00:10:17;;;;;;;10.65;3.70;;;14.70;99.90;;;;;;5095469;28;20105;-59
2021/06/16 00:12:43;;;;;;;9.30;3.75;;;14.60;99.90;;;;;;5095504;28;20048;-59
2021/06/16 00:15:13;;;;;;;8.73;3.28;;;14.60;99.90;;;;;;5095434;28;20093;-59
2021/06/16 00:17:39;;;;;;;8.88;3.70;;;14.50;99.90;;;;;;5095000;28;20448;-59
2021/06/16 00:20:06;;;;;;;8.65;3.63;;;14.60;99.90;;;;;;5095081;28;20481;-58
2021/06/16 00:22:31;;;;;;;14.05;3.55;;;14.50;99.90;;;;;;5095407;28;20060;-59
2021/06/16 00:24:57;;;;;;;8.85;3.50;;;14.50;99.90;;;;;;5095256;28;20067;-58
2021/06/16 00:27:23;;;;;;;9.52;3.72;;;14.50;99.90;;;;;;5095545;28;20040;-58
2021/06/16 00:29:48;;;;;;;6.28;3.47;;;14.40;99.90;;;;;;5095352;28;20096;-59
2021/06/16 00:32:14;;;;;;;9.25;2.72;;;14.40;99.90;;;;;;5095193;28;20047;-59
2021/06/16 00:34:40;;;;;;;10.27;3.20;;;14.40;99.90;;;;;;5095055;28;20096;-59
2021/06/16 00:37:05;;;;;;;10.23;2.92;;;14.40;99.90;;;;;;5095059;28;20032;-59
2021/06/16 00:39:31;;;;;;;11.30;3.72;;;14.30;99.90;;;;;;5094998;28;20051;-59
2021/06/16 00:41:57;;;;;;;11.88;3.65;;;14.40;99.90;;;;;;5094717;28;20449;-59
2021/06/16 00:44:23;;;;;;;6.75;3.03;;;14.30;99.90;;;;;;5095125;28;20044;-59
2021/06/16 00:46:49;;;;;;;5.55;2.83;;;14.40;99.90;;;;;;5095179;28;20435;-58
2021/06/16 00:49:15;;;;;;;7.30;2.88;;;14.30;99.90;;;;;;5094874;28;20040;-59
2021/06/16 00:51:40;;;;;;;10.30;3.67;;;14.30;99.90;;;;;;5094636;28;20036;-59
2021/06/16 00:54:10;;;;;;;7.35;3.25;;;14.30;99.90;;;;;;5095471;28;20048;-59
2021/06/16 00:56:41;;;;;;;8.80;3.58;;;14.30;99.90;;;;;;5094636;28;20555;-59
2021/06/16 00:59:08;;;;;;;10.10;3.20;;;14.30;99.90;;;;;;5094495;28;20048;-58
2021/06/16 01:01:45;;;;;;;8.32;2.95;;;14.30;99.90;;;;;;5094597;28;20044;-59
2021/06/16 01:04:23;;;;;;;10.32;3.05;;;14.20;99.90;;;;;;5094450;28;20500;-59
2021/06/16 01:06:58;;;;;;;11.90;3.17;;;14.20;99.90;;;;;;5094556;28;20040;-58
2021/06/16 01:09:36;;;;;;;9.02;3.35;;;14.10;99.90;;;;;;5094448;28;20507;-58
2021/06/16 01:12:17;;;;;;;11.68;3.08;;;14.10;99.90;;;;;;5094234;28;20048;-59
2021/06/16 01:15:05;;;;;;;8.75;2.92;;;14.20;99.90;;;;;;5094231;28;20036;-59
2021/06/16 01:17:38;;;;;;;15.25;3.95;;;14.10;99.90;;;;;;5094347;28;20036;-58
2021/06/16 01:20:35;;;;;;;10.48;3.70;;;14.20;99.90;;;;;;5094111;28;20375;-59
2021/06/16 01:23:08;;;;;;;11.38;3.33;;;14.10;99.90;;;;;;5094351;28;20044;-58
2021/06/16 01:25:45;;;;;;;7.72;3.20;;;14.00;99.90;;;;;;5093943;28;20032;-59
2021/06/16 01:28:11;;;;;;;8.40;3.38;;;14.10;99.90;;;;;;5093878;28;20051;-58
2021/06/16 01:30:40;;;;;;;8.25;3.53;;;14.00;99.90;;;;;;5093759;28;20044;-59
2021/06/16 01:33:06;;;;;;;;;;;14.00;99.90;;;;;;5094219;28;20044;-59
2021/06/16 01:35:32;;;;;;;6.95;2.83;;;13.90;99.90;;;;;;5093932;28;19915;-59
2021/06/16 01:37:59;;;;;;;9.02;3.20;;;13.90;99.90;;;;;;5093809;28;20040;-58
2021/06/16 01:40:27;;;;;;;11.65;3.55;;;13.90;99.90;;;;;;5093740;28;20047;-58
2021/06/16 01:43:00;;;;;;;13.43;3.60;;;13.90;99.90;;;;;;5093646;28;20379;-58
2021/06/16 01:45:29;;;;;;;11.25;3.67;;;14.00;99.90;;;;;;5093616;28;20587;-58
2021/06/16 01:48:00;;;;;;;8.50;3.53;;;13.90;99.90;;;;;;5093706;28;20040;-59
2021/06/16 01:50:28;;;;;;;8.95;3.67;;;13.90;99.90;;;;;;5093793;28;20477;-58
2021/06/16 01:52:55;;;;;;;12.57;3.15;;;13.90;99.90;;;;;;5093938;28;21065;-58
2021/06/16 01:55:22;;;;;;;10.57;3.28;;;13.80;99.90;;;;;;5093938;28;20154;-59
2021/06/16 01:57:54;;;;;;;9.50;3.20;;;13.80;99.90;;;;;;5093738;28;20496;-59
2021/06/16 02:00:20;;;;;;;10.63;3.30;;;13.80;99.90;;;;;;5093462;28;20028;-59
2021/06/16 02:02:46;;;;;;;7.43;2.70;;;13.70;99.90;;;;;;5093537;28;20093;-58
2021/06/16 02:05:13;;;;;;;10.00;3.40;;;13.80;99.90;;;;;;5093289;28;20090;-58
2021/06/16 02:07:41;;;;;;;8.55;3.20;;;13.70;99.90;;;;;;5093196;28;20417;-58
2021/06/16 02:10:11;;;;;;;8.18;2.95;;;13.70;99.90;;;;;;5093259;28;20071;-58
2021/06/16 02:12:39;;;;;;;8.02;3.80;;;13.60;99.90;;;;;;5092931;28;20036;-58
2021/06/16 02:15:12;;;;;;;8.20;2.90;;;13.70;99.90;;;;;;5093166;28;20474;-58
2021/06/16 02:17:41;;;;;;;5.78;3.00;;;13.70;99.90;;;;;;5093151;28;20097;-58
2021/06/16 02:20:08;;;;;;;11.82;3.72;;;13.60;99.90;;;;;;5092931;28;20052;-58
2021/06/16 02:22:34;;;;;;;8.95;2.97;;;13.60;99.90;;;;;;5092957;28;20048;-59
2021/06/16 02:25:01;;;;;;;9.63;3.45;;;13.60;99.90;;;;;;5092460;28;20048;-58
2021/06/16 02:27:27;;;;;;;13.75;3.63;;;13.60;99.90;;;;;;5092807;28;20478;-58
2021/06/16 02:29:52;;;;;;;10.15;2.67;;;13.60;99.90;;;;;;5093006;28;20097;-59
2021/06/16 02:32:18;;;;;;;9.02;3.00;;;13.60;99.90;;;;;;5092899;28;20039;-59
2021/06/16 02:34:45;;;;;;;8.10;3.03;;;13.60;99.90;;;;;;5092771;28;20040;-58
2021/06/16 02:37:13;;;;;;;9.00;2.92;;;13.60;99.90;;;;;;5092897;28;20044;-58
2021/06/16 02:39:54;;;;;;;8.10;3.30;;;13.60;99.90;;;;;;5092705;28;20047;-58
2021/06/16 02:42:22;;;;;;;7.88;3.13;;;13.50;99.90;;;;;;5092621;28;20040;-58
2021/06/16 02:44:52;;;;;;;10.63;3.30;;;13.50;99.90;;;;;;5092861;28;20048;-58
2021/06/16 02:47:19;;;;;;;7.57;3.83;;;13.40;99.90;;;;;;5092669;28;20401;-58
2021/06/16 02:49:54;;;;;;;7.72;3.03;;;13.40;99.90;;;;;;5092300;28;20093;-58
2021/06/16 02:52:21;;;;;;;7.10;3.50;;;13.50;99.90;;;;;;5092681;28;20456;-59
2021/06/16 02:54:52;;;;;;;10.10;3.42;;;13.50;99.90;;;;;;5092465;28;20097;-58
2021/06/16 02:57:22;;;;;;;8.85;3.67;;;13.50;99.90;;;;;;5092974;28;20059;-59
2021/06/16 02:59:50;;;;;;;7.90;3.65;;;13.40;99.90;;;;;;5092377;28;20036;-59
2021/06/16 03:02:19;;;;;;;10.38;4.28;;;13.40;99.90;;;;;;5092231;28;20048;-59
2021/06/16 03:04:46;;;;;;;8.13;3.83;;;13.40;99.90;;;;;;5092173;28;20044;-58
2021/06/16 03:07:12;;;;;;;11.48;4.32;;;13.40;99.90;;;;;;5092472;28;20036;-58
2021/06/16 03:09:39;;;;;;;7.45;3.65;;;13.40;99.90;;;;;;5092204;28;20055;-59
2021/06/16 03:12:07;;;;;;;7.60;3.78;;;13.30;99.90;;;;;;5092247;28;20047;-58
2021/06/16 03:14:33;;;;;;;9.65;3.80;;;13.30;99.90;;;;;;5092349;28;20044;-58
2021/06/16 03:17:01;;;;;;;6.53;3.55;;;13.30;99.90;;;;;;5092331;28;20044;-58
2021/06/16 03:19:27;;;;;;;7.03;3.65;;;13.30;99.90;;;;;;5091992;28;20047;-58
2021/06/16 03:21:55;;;;;;;11.02;4.28;;;13.30;99.90;;;;;;5091856;28;20096;-58
2021/06/16 03:24:23;;;;;;;7.43;3.80;;;13.30;99.90;;;;;;5092153;28;20067;-58
2021/06/16 03:26:50;;;;;;;10.63;4.05;;;13.30;99.90;;;;;;5092344;28;20040;-58
2021/06/16 03:29:18;;;;;;;18.75;4.38;;;13.30;99.90;;;;;;5092003;28;20044;-58
2021/06/16 03:31:46;;;;;;;13.30;4.50;;;13.30;99.90;;;;;;5091984;28;20462;-58
2021/06/16 03:34:13;;;;;;;11.82;4.10;;;13.30;99.90;;;;;;5092115;28;20041;-58
2021/06/16 03:36:42;;;;;;;9.45;4.47;;;13.30;99.90;;;;;;5095401;28;20044;-59
2021/06/16 03:39:09;;;;;;;13.23;4.20;;;13.30;99.90;;;;;;5096027;28;20040;-58
2021/06/16 03:41:35;;;;;;;8.73;5.47;;;13.30;99.90;;;;;;5095866;28;20542;-59
2021/06/16 03:44:03;;;;;;;12.23;4.35;;;13.30;99.90;;;;;;5095848;28;20048;-58
2021/06/16 03:46:31;;;;;;;10.30;4.95;;;13.30;99.90;;;;;;5095929;28;20498;-59
2021/06/16 03:48:58;;;;;;;8.55;3.80;;;13.30;99.90;;;;;;5095853;28;20040;-59
2021/06/16 03:51:27;;;;;;;10.25;3.95;;;13.40;99.90;;;;;;5095951;28;20079;-58
2021/06/16 03:53:53;;;;;;;10.77;4.95;;;13.30;99.90;;;;;;5095904;28;20036;-58
2021/06/16 03:56:22;;;;;;;8.68;4.63;;;13.40;99.90;;;;;;5095841;28;20040;-59
2021/06/16 03:58:50;;;;;;;12.00;5.25;;;13.30;99.90;;;;;;5095736;28;20481;-58
2021/06/16 04:01:17;;;;;;;14.63;4.57;;;13.30;99.90;;;;;;5095861;28;20051;-58
2021/06/16 04:03:43;;;;;;;13.80;5.25;;;13.30;99.90;;;;;;5095889;28;20076;-59
2021/06/16 04:06:13;;;;;;;10.57;4.70;;;13.40;99.90;;;;;;5095560;28;20040;-59
2021/06/16 04:08:40;;;;;;;13.00;5.03;;;13.40;99.90;;;;;;5095426;28;20456;-59
2021/06/16 04:11:06;;;;;;;13.80;5.00;;;13.40;99.90;;;;;;5095474;28;20062;-59
2021/06/16 04:13:32;;;;;;;10.07;4.72;;;13.40;99.90;;;;;;5094311;28;20044;-58
2021/06/16 04:15:59;;;;;;;12.63;5.72;;;13.50;99.90;;;;;;5095700;28;20044;-58
2021/06/16 04:18:25;;;;;;;9.95;4.63;;;13.50;99.90;;;;;;5095364;28;20381;-59
2021/06/16 04:20:51;;;;;;;8.60;4.70;;;13.50;99.90;;;;;;5094755;28;20059;-59
2021/06/16 04:23:16;;;;;;;9.65;4.85;;;13.60;99.90;;;;;;5095174;28;20123;-59
2021/06/16 04:25:42;;;;;;;8.32;5.05;;;13.60;99.90;;;;;;5095141;28;20044;-58
2021/06/16 04:28:08;;;;;;;12.23;4.95;;;13.70;99.90;;;;;;5095041;28;20489;-58
2021/06/16 04:30:33;;;;;;;9.60;5.13;;;13.70;99.90;;;;;;5095044;28;20083;-58
2021/06/16 04:33:00;;;;;;;11.98;5.43;;;13.70;99.90;;;;;;5095424;28;20303;-57
2021/06/16 04:35:26;;;;;;;11.23;5.43;;;13.80;99.90;;;;;;5094974;28;20109;-59
2021/06/16 04:37:51;;;;;;;15.43;4.72;;;13.80;99.90;;;;;;5093958;28;20044;-58
2021/06/16 04:40:17;;;;;;;10.95;4.53;;;13.80;99.90;;;;;;5094869;28;20043;-59
2021/06/16 04:42:43;;;;;;;15.18;5.32;;;13.90;99.90;;;;;;5094747;28;20044;-58
2021/06/16 04:45:10;;;;;;;11.55;4.70;;;13.90;99.90;;;;;;5092625;28;20110;-58
2021/06/16 04:47:37;;;;;;;14.55;6.45;;;14.00;99.90;;;;;;5093947;28;20048;-60
2021/06/16 04:50:12;;;;;;;11.60;5.43;;;14.10;99.90;;;;;;5093546;28;20051;-59
2021/06/16 04:52:38;;;;;;;19.83;6.00;;;14.10;99.90;;;;;;5094545;28;20093;-59
2021/06/16 04:55:05;;;;;;;14.35;5.40;;;14.20;99.90;;;;;;5094761;28;20048;-58
2021/06/16 04:57:31;;;;;;;9.02;5.68;;;14.30;99.90;;;;;;5094633;28;20055;-58
2021/06/16 04:59:56;;;;;;;8.77;5.10;;;14.40;99.90;;;;;;5094570;28;20043;-58
2021/06/16 05:02:22;;;;;;;8.52;5.15;;;14.40;99.90;;;;;;5094409;28;20040;-58
2021/06/16 05:04:49;;;;;;;10.77;5.25;;;14.40;99.90;;;;;;5094310;28;20043;-59
2021/06/16 05:07:15;;;;;;;11.77;5.63;;;14.50;99.90;;;;;;5094599;28;20375;-58
2021/06/16 05:09:40;;;;;;;7.80;4.70;;;14.60;99.90;;;;;;5094489;28;20105;-58
2021/06/16 05:12:07;;;;;;;9.25;4.70;;;14.70;99.90;;;;;;5094319;28;20115;-58
2021/06/16 05:14:32;;;;;;;9.93;5.03;;;14.70;99.90;;;;;;5094148;28;20096;-58
2021/06/16 05:16:58;;;;;;;10.10;5.05;;;14.80;99.90;;;;;;5094441;28;20048;-59
2021/06/16 05:19:24;;;;;;;9.27;4.82;;;14.90;99.90;;;;;;5094270;28;20458;-59
2021/06/16 05:21:50;;;;;;;10.23;4.55;;;15.00;99.90;;;;;;5094684;28;20051;-58
2021/06/16 05:24:17;;;;;;;11.48;4.68;;;15.10;99.90;;;;;;5094510;28;20036;-58
2021/06/16 05:26:43;;;;;;;12.13;5.20;;;15.20;99.90;;;;;;5094062;28;20043;-59
2021/06/16 05:29:09;;;;;;;14.38;3.92;;;15.30;99.90;;;;;;5093898;28;20044;-59
2021/06/16 05:31:35;;;;;;;9.90;4.93;;;15.30;99.90;;;;;;5093915;28;20100;-58
2021/06/16 05:34:02;;;;;;;11.77;4.68;;;15.50;99.90;;;;;;5093721;28;20119;-59
2021/06/16 05:36:29;;;;;;;11.35;4.75;;;15.50;99.90;;;;;;5093792;28;20070;-60
2021/06/16 05:38:55;;;;;;;11.07;4.72;;;15.50;99.90;;;;;;5093702;28;20047;-58
2021/06/16 05:41:21;;;;;;;13.23;4.93;;;15.60;99.90;;;;;;5093707;28;20043;-58
2021/06/16 05:43:47;;;;;;;13.40;4.47;;;15.70;99.90;;;;;;5093829;28;20044;-59
2021/06/16 05:46:13;;;;;;;9.27;4.97;;;15.70;99.90;;;;;;5092376;28;20494;-59
2021/06/16 05:48:39;;;;;;;9.93;4.43;;;15.80;99.90;;;;;;5093653;28;20071;-59
2021/06/16 05:51:05;;;;;;;9.32;4.32;;;16.00;99.90;;;;;;5093629;28;20482;-59
2021/06/16 05:53:32;;;;;;;9.60;5.28;;;16.00;99.90;;;;;;5093713;28;20105;-58
2021/06/16 05:55:58;;;;;;;9.15;4.70;;;16.20;99.90;;;;;;5093398;28;20048;-59
2021/06/16 05:58:25;;;;;;;10.98;4.45;;;16.20;99.90;;;;;;5092582;28;20047;-59
2021/06/16 06:00:50;;;;;;;8.10;4.57;;;16.30;99.90;;;;;;5093043;28;20051;-59
2021/06/16 06:03:16;;;;;;;8.93;4.20;;;16.40;99.90;;;;;;5093181;28;20482;-58
2021/06/16 06:05:42;;;;;;;9.60;4.18;;;16.40;99.90;;;;;;5093252;28;20043;-58
2021/06/16 06:08:08;;;;;;;11.57;4.13;;;16.50;99.90;;;;;;5093197;28;20146;-60
2021/06/16 06:10:34;;;;;;;15.88;4.60;;;16.60;99.90;;;;;;5093279;28;20040;-59
2021/06/16 06:13:00;;;;;;;10.63;4.80;;;16.70;99.90;;;;;;5093355;28;20070;-59
2021/06/16 06:15:26;;;;;;;12.18;4.53;;;16.80;99.90;;;;;;5093124;28;20040;-59
2021/06/16 06:17:52;;;;;;;6.85;4.20;;;16.90;99.90;;;;;;5093093;28;20051;-59
2021/06/16 06:20:18;;;;;;;9.52;4.15;;;17.20;99.90;;;;;;5093118;28;20222;-59
2021/06/16 06:22:44;;;;;;;8.18;4.03;;;17.30;99.90;;;;;;5093234;28;20048;-58
2021/06/16 06:25:11;;;;;;;8.05;4.40;;;17.50;99.90;;;;;;5093122;28;20553;-59
2021/06/16 06:27:38;;;;;;;9.63;4.47;;;17.40;99.90;;;;;;5092799;28;20044;-59
2021/06/16 06:30:04;;;;;;;11.52;4.20;;;17.60;99.90;;;;;;5092818;28;20051;-59
2021/06/16 06:32:30;;;;;;;12.27;4.50;;;17.70;99.90;;;;;;5084923;28;20571;-58
2021/06/16 06:34:57;;;;;;;8.55;4.40;;;17.80;99.90;;;;;;5072768;28;20118;-60
2021/06/16 06:37:22;;;;;;;9.63;4.57;;;17.90;99.90;;;;;;5072813;28;20075;-58
2021/06/16 06:39:49;;;;;;;8.18;4.47;;;17.80;99.90;;;;;;5072510;28;20041;-59
2021/06/16 06:42:18;;;;;;;8.70;4.15;;;18.00;99.90;;;;;;5079982;28;20102;-57
2021/06/16 06:44:45;;;;;;;9.00;4.25;;;18.20;99.90;;;;;;5092456;28;20043;-57
2021/06/16 06:47:10;;;;;;;10.40;4.78;;;18.40;99.90;;;;;;5092298;28;20402;-57
2021/06/16 06:49:37;;;;;;;18.63;4.57;;;18.60;99.90;;;;;;5092379;28;20044;-57
2021/06/16 06:52:03;;;;;;;9.70;4.57;;;18.70;99.90;;;;;;5092676;28;20514;-58
2021/06/16 06:54:29;;;;;;;11.05;4.60;;;18.60;99.90;;;;;;5092154;28;20482;-58
2021/06/16 06:56:55;;;;;;;9.75;3.80;;;18.70;99.90;;;;;;5092458;28;20043;-57
2021/06/16 06:59:20;;;;;;;11.57;4.10;;;18.90;99.90;;;;;;5092046;28;20032;-57
2021/06/16 07:01:46;;;;;;;8.32;4.75;;;19.20;99.90;;;;;;5092178;28;20043;-56
2021/06/16 07:04:12;;;;;;;8.60;3.88;;;19.00;99.90;;;;;;5092143;28;20429;-57
2021/06/16 07:06:37;;;;;;;8.38;4.00;;;19.40;99.90;;;;;;5092199;28;20047;-57
2021/06/16 07:09:04;;;;;;;10.40;4.38;;;19.50;99.90;;;;;;5092135;28;20539;-57
2021/06/16 07:11:30;;;;;;;8.52;3.75;;;19.60;99.90;;;;;;5091740;28;20040;-58
2021/06/16 07:13:56;;;;;;;8.55;3.90;;;19.80;99.90;;;;;;5092066;28;20131;-57
2021/06/16 07:16:22;;;;;;;7.28;3.90;;;20.10;99.90;;;;;;5091820;28;20473;-57
2021/06/16 07:18:48;;;;;;;11.02;3.90;;;20.20;99.90;;;;;;5091937;28;20040;-57
2021/06/16 07:21:15;;;;;;;9.68;3.35;;;20.30;99.90;;;;;;5091591;28;20104;-58
2021/06/16 07:23:41;;;;;;;8.93;3.72;;;20.60;99.90;;;;;;5091979;28;20051;-58
2021/06/16 07:26:07;;;;;;;7.97;3.67;;;20.60;99.90;;;;;;5092042;28;20054;-57
2021/06/16 07:28:33;;;;;;;12.98;3.90;;;20.80;99.90;;;;;;5092238;28;20488;-57
2021/06/16 07:30:59;;;;;;;7.03;3.17;;;21.00;99.90;;;;;;5091930;28;20084;-57
2021/06/16 07:33:24;;;;;;;10.32;3.85;;;21.20;99.90;;;;;;5091824;28;20470;-57
2021/06/16 07:35:50;;;;;;;9.10;3.92;;;21.40;99.90;;;;;;5091704;28;20055;-57
2021/06/16 07:38:16;;;;;;;8.05;3.30;;;21.50;99.90;;;;;;5091818;28;20119;-57
2021/06/16 07:40:42;;;;;;;10.50;3.63;;;21.70;99.90;;;;;;5091628;28;20134;-58
2021/06/16 07:43:07;;;;;;;7.07;3.08;;;21.80;99.90;;;;;;5091663;28;20055;-58
2021/06/16 07:45:33;;;;;;;9.50;3.60;;;22.00;99.90;;;;;;5091732;28;20093;-58
2021/06/16 07:47:59;;;;;;;9.10;3.33;;;22.10;99.90;;;;;;5091673;28;20036;-57
2021/06/16 07:50:26;;;;;;;8.35;3.50;;;22.30;99.90;;;;;;5091606;28;20050;-56
2021/06/16 07:52:53;;;;;;;6.97;2.75;;;22.30;99.90;;;;;;5091827;28;20044;-57
2021/06/16 07:55:19;;;;;;;8.68;3.45;;;22.70;99.60;;;;;;5091597;28;20047;-56
2021/06/16 07:57:45;;;;;;;7.57;2.75;;;23.40;99.10;;;;;;5091699;28;20083;-56
2021/06/16 08:00:11;;;;;;;11.40;4.38;;;24.30;99.20;;;;;;5091391;28;20067;-56
2021/06/16 08:02:38;;;;;;;8.50;3.10;;;24.70;97.60;;;;;;5091727;28;20048;-57
2021/06/16 08:05:06;;;;;;;6.63;2.65;;;24.80;97.30;;;;;;5091452;28;20043;-57
2021/06/16 08:07:32;;;;;;;10.60;3.10;;;25.40;97.20;;;;;;5091611;28;20059;-56
2021/06/16 08:09:57;;;;;;;6.22;2.60;;;25.60;95.90;;;;;;5091455;28;20048;-57
2021/06/16 08:12:23;;;;;;;7.75;2.67;;;26.20;95.70;;;;;;5091527;28;20048;-57
2021/06/16 08:14:49;;;;;;;8.73;3.25;;;26.30;95.80;;;;;;5091382;28;20036;-58
2021/06/16 08:17:15;;;;;;;8.05;2.92;;;26.00;94.50;;;;;;5090603;28;20071;-57
2021/06/16 08:19:41;;;;;;;9.25;2.72;;;26.10;94.50;;;;;;5091375;28;20048;-57
2021/06/16 08:22:10;;;;;;;13.23;2.90;;;26.80;94.50;;;;;;5092481;28;20052;-57
2021/06/16 08:24:37;;;;;;;13.18;3.53;;;27.10;94.00;;;;;;5095184;28;20040;-57
2021/06/16 08:27:03;;;;;;;7.82;2.70;;;27.20;92.50;;;;;;5095046;28;20500;-57
2021/06/16 08:29:29;;;;;;;7.60;2.67;;;27.40;92.50;;;;;;5095154;28;20473;-57
2021/06/16 08:31:55;;;;;;;10.05;2.97;;;27.80;93.00;;;;;;5095390;28;20055;-58
2021/06/16 08:34:20;;;;;;;9.57;2.60;;;28.10;92.40;;;;;;5095300;28;20147;-57
2021/06/16 08:36:46;;;;;;;6.78;2.83;;;28.20;92.10;;;;;;5095107;28;20040;-57
2021/06/16 08:39:12;;;;;;;9.73;2.40;;;28.60;91.60;;;;;;5094841;28;20044;-58
2021/06/16 08:41:42;;;;;;;8.32;2.60;;;28.70;90.90;;;;;;5094870;28;20138;-58
2021/06/16 08:44:08;;;;;;;8.90;2.53;;;28.80;88.90;;;;;;5094919;28;20401;-57
2021/06/16 08:46:34;;;;;;;11.32;2.75;;;29.00;88.60;;;;;;5093704;28;20444;-58
2021/06/16 08:49:05;;;;;;;5.45;2.38;;;28.90;89.50;;;;;;5094640;28;20471;-57
2021/06/16 08:51:33;;;;;;;6.55;2.15;;;28.70;89.60;;;;;;5094557;28;20049;-58
2021/06/16 08:53:59;;;;;;;6.13;1.90;;;28.90;87.90;;;;;;5094750;28;20090;-58
2021/06/16 08:56:25;;;;;;;5.93;2.30;;;28.90;87.50;;;;;;5094634;28;20763;-58
2021/06/16 08:58:51;;;;;;;6.97;2.55;;;29.00;86.00;;;;;;5094617;28;20044;-57
2021/06/16 09:01:17;;;;;;;7.10;2.08;;;28.60;85.80;;;;;;5094633;28;20091;-57
2021/06/16 09:03:42;;;;;;;5.80;1.80;;;28.40;87.40;;;;;;5094372;28;20085;-57
2021/06/16 09:06:10;;;;;;;5.95;2.13;;;28.30;85.60;;;;;;5094425;28;20040;-58
2021/06/16 09:08:57;;;;;;;9.20;2.58;;;28.40;85.00;;;;;;5094346;28;20075;-57
2021/06/16 09:11:25;;;;;;;5.15;1.58;;;28.50;82.40;;;;;;5094452;28;20097;-58
2021/06/16 09:14:08;;;;;;;5.65;1.88;;;28.70;83.90;;;;;;5094249;28;20044;-58
2021/06/16 09:16:34;;;;;;;6.53;1.90;;;28.70;84.00;;;;;;5094174;28;20111;-58
2021/06/16 09:19:00;;;;;;;5.47;2.00;;;28.40;79.10;;;;;;5094090;28;20119;-58
2021/06/16 09:21:40;;;;;;;5.47;1.70;;;28.10;82.70;;;;;;5094123;28;20478;-57
2021/06/16 09:24:07;;;;;;;10.30;2.50;;;28.30;82.90;;;;;;5094014;28;20047;-58
2021/06/16 09:26:35;;;;;;;6.93;2.78;;;28.60;84.20;;;;;;5094112;28;20051;-58
2021/06/16 09:29:02;;;;;;;7.40;2.42;;;28.70;83.10;;;;;;5094008;28;20097;-58
2021/06/16 09:31:40;;;;;;;9.63;2.22;;;28.80;81.70;;;;;;5093762;28;20036;-57
2021/06/16 09:34:08;;;;;;;8.23;2.38;;;28.80;81.50;;;;;;5093633;28;20098;-58
2021/06/16 09:36:48;;;;;;;6.45;2.00;;;28.60;81.10;;;;;;5093629;28;20044;-59
2021/06/16 09:39:13;;;;;;;4.07;2.10;;;28.90;80.50;;;;;;5093712;28;20048;-59
2021/06/16 09:42:02;;;;;;;7.68;2.60;;;28.80;81.70;;;;;;5093617;28;20043;-59
2021/06/16 09:44:40;;;;;;;5.55;1.98;;;28.80;81.30;;;;;;5093836;28;20105;-59
2021/06/16 09:47:16;;;;;;;7.68;2.65;;;29.40;82.20;;;;;;5093780;28;20040;-58
2021/06/16 09:49:54;;;;;;;6.03;1.85;;;29.20;78.30;;;;;;5093382;28;20050;-59
2021/06/16 09:52:35;;;;;;;4.55;1.60;;;29.90;81.50;;;;;;5093728;28;20063;-58
2021/06/16 09:55:06;;;;;;;7.65;1.98;;;30.20;79.10;;;;;;5093450;28;20032;-59
2021/06/16 09:57:33;;;;;;;4.85;2.13;;;30.10;79.70;;;;;;5093397;28;20047;-59
2021/06/16 10:00:02;;;;;;;8.27;2.63;;;30.30;78.90;;;;;;5093250;28;20036;-59
2021/06/16 10:02:30;;;;;;;6.50;1.80;;;30.50;77.30;;;;;;5093354;28;20048;-59
2021/06/16 10:05:01;;;;;;;5.65;1.80;;;30.80;77.60;;;;;;5093173;28;20067;-59
2021/06/16 10:07:31;;;;;;;5.13;1.85;;;30.20;75.80;;;;;;5093652;28;20044;-58
2021/06/16 10:10:08;;;;;;;8.20;2.33;;;30.70;77.70;;;;;;5093292;28;20097;-59
2021/06/16 10:12:36;;;;;;;5.95;1.67;;;30.90;74.50;;;;;;5092004;28;20101;-59
2021/06/16 10:15:14;;;;;;;4.22;1.60;;;31.10;71.80;;;;;;5092980;28;20067;-59
2021/06/16 10:17:40;;;;;;;5.28;1.90;;;31.10;71.20;;;;;;5092799;28;20062;-58
2021/06/16 10:20:07;;;;;;;4.97;2.00;;;31.00;71.40;;;;;;5092742;28;20047;-59
2021/06/16 10:22:33;;;;;;;5.47;1.90;;;31.20;73.50;;;;;;5092936;28;20560;-59
2021/06/16 10:24:59;;;;;;;5.13;1.80;;;31.70;72.00;;;;;;5089302;28;20370;-60
2021/06/16 10:27:32;;;;;;;4.30;1.40;;;31.90;71.50;;;;;;5092973;28;20135;-61
2021/06/16 10:30:09;;;;;;;2.65;1.75;;;32.30;71.10;;;;;;5091220;28;20123;-59
2021/06/16 10:32:44;;;;;;;5.72;1.75;;;32.40;69.40;;;;;;5092384;28;20519;-59
2021/06/16 10:35:36;;;;;;;7.13;1.40;;;32.50;67.20;;;;;;5089396;28;20251;-57
2021/06/16 10:38:13;;;;;;;4.13;1.65;;;32.80;67.50;;;;;;5081879;28;20036;-59
2021/06/16 10:40:52;;;;;;;5.55;1.90;;;32.50;65.10;;;;;;5072269;28;20048;-57
2021/06/16 10:43:23;;;;;;;9.13;1.67;;;33.20;68.20;;;;;;5072346;28;20036;-57
2021/06/16 10:46:01;;;;;;;6.80;1.23;;;33.60;69.00;;;;;;5071553;28;20119;-57
2021/06/16 10:48:56;;;;;;;5.03;1.67;;;33.80;63.60;;;;;;5072239;28;20040;-56
2021/06/16 10:51:23;;;;;;;6.20;1.70;;;33.70;63.90;;;;;;5072175;28;20036;-56
2021/06/16 10:54:27;;;;;;;5.80;1.27;;;34.10;65.50;;;;;;5079426;28;20421;-57
2021/06/16 10:56:59;;;;;;;5.10;1.20;;;34.30;64.20;;;;;;5049073;28;20506;-57
2021/06/16 10:59:42;;;;;;;7.65;1.60;;;33.90;64.50;;;;;;5049426;28;20048;-56
2021/06/16 11:02:18;;;;;;;5.00;1.55;;;33.90;61.70;;;;;;5044134;28;20052;-57
2021/06/16 11:04:45;;;;;;;4.22;1.55;;;33.80;61.80;;;;;;5048410;28;20553;-56
2021/06/16 11:07:31;;;;;;;5.90;1.52;;;34.10;60.30;;;;;;5049874;28;20145;-56
2021/06/16 11:10:01;;;;;;;4.68;2.03;;;33.60;59.30;;;;;;5049722;28;20048;-56
2021/06/16 11:12:38;;;;;;;4.22;1.50;;;34.10;60.40;;;;;;5045434;28;20044;-56
2021/06/16 11:15:09;;;;;;;4.35;1.70;;;34.50;59.30;;;;;;5047293;28;20063;-57
2021/06/16 11:17:35;;;;;;;5.18;1.40;;;34.30;59.20;;;;;;5049313;28;20459;-56
2021/06/16 11:20:07;;;;;;;6.68;1.50;;;34.20;59.30;;;;;;5047346;28;20498;-57
2021/06/16 11:22:59;;;;;;;6.20;1.77;;;34.70;61.30;;;;;;5035170;28;20527;-56
2021/06/16 11:25:36;;;;;;;9.02;1.70;;;34.70;59.60;;;;;;5041604;28;20473;-56
2021/06/16 11:28:10;;;;;;;3.00;1.33;;;35.00;58.30;;;;;;5049580;28;20414;-57
2021/06/16 11:30:40;;;;;;;5.40;1.48;;;34.80;56.80;;;;;;5066560;28;20131;-56
2021/06/16 11:35:54;;;;;;;9.30;1.60;;;35.40;58.40;;;;;;5091658;28;20115;-57
2021/06/16 11:38:20;;;;;;;5.78;1.42;;;35.30;57.40;;;;;;5091823;28;20127;-56
2021/06/16 11:41:03;;;;;;;10.63;1.63;;;35.60;59.40;;;;;;5091744;28;20150;-56
2021/06/16 11:43:30;;;;;;;3.83;1.65;;;35.40;56.90;;;;;;5092026;28;20059;-56
2021/06/16 11:45:56;;;;;;;4.78;1.30;;;35.30;58.20;;;;;;5092016;28;20040;-57
2021/06/16 11:48:21;;;;;;;9.20;1.42;;;35.60;57.90;;;;;;5091872;28;20114;-56
2021/06/16 11:50:49;;;;;;;7.60;1.80;;;35.40;57.00;;;;;;5079240;28;20043;-56
2021/06/16 11:53:32;;;;;;;6.05;1.33;;;35.70;56.60;;;;;;5089537;28;20044;-56
2021/06/16 11:56:07;;;;;;;6.18;1.23;;;35.50;56.20;;;;;;5077508;28;20059;-56
2021/06/16 11:58:38;;;;;;;6.38;1.58;;;35.80;54.80;;;;;;5096000;28;20068;-56
2021/06/16 12:01:07;;;;;;;6.07;1.60;;;35.50;56.50;;;;;;5095844;28;20047;-56
2021/06/16 12:03:34;;;;;;;6.35;1.50;;;35.50;54.90;;;;;;5095720;28;20097;-56
2021/06/16 12:06:14;;;;;;;5.75;1.63;;;35.40;56.80;;;;;;5095638;28;20036;-56
2021/06/16 12:08:42;;;;;;;6.38;1.67;;;35.30;53.00;;;;;;5095814;28;20089;-57
2021/06/16 12:11:21;;;;;;;5.22;1.40;;;35.40;55.50;;;;;;5095547;28;20072;-56
2021/06/16 12:13:54;;;;;;;2.63;1.00;;;35.40;56.00;;;;;;5095462;28;20044;-56
2021/06/16 12:16:24;;;;;;;8.52;1.80;;;35.50;55.10;;;;;;5085568;28;20049;-56
2021/06/16 12:18:50;;;;;;;6.28;2.00;;;35.40;56.20;;;;;;5075090;28;20413;-56
2021/06/16 12:21:16;;;;;;;3.85;1.70;;;35.20;55.50;;;;;;5074782;28;20053;-57
2021/06/16 12:23:43;;;;;;;5.43;1.40;;;35.40;56.10;;;;;;5075034;28;20420;-56
2021/06/16 12:26:14;;;;;;;4.05;1.30;;;35.00;55.10;;;;;;5074993;28;20036;-56
2021/06/16 12:28:43;;;;;;;6.20;1.48;;;35.10;55.40;;;;;;5074789;28;20551;-56
2021/06/16 12:31:13;;;;;;;4.95;1.70;;;35.10;55.80;;;;;;5074819;28;20136;-56
2021/06/16 12:33:50;;;;;;;4.32;1.35;;;34.90;55.80;;;;;;5074740;28;20041;-56
2021/06/16 12:36:17;;;;;;;3.78;1.27;;;34.00;53.00;;;;;;5074936;28;20046;-56
2021/06/16 12:38:48;;;;;;;5.25;1.02;;;33.90;55.30;;;;;;5074584;28;20492;-56
2021/06/16 12:41:28;;;;;;;5.38;1.70;;;34.00;55.30;;;;;;5078913;28;20079;-56
2021/06/16 12:44:20;;;;;;;5.63;1.30;;;33.20;55.00;;;;;;5075147;28;20040;-56
2021/06/16 12:47:14;;;;;;;3.70;1.30;;;33.60;56.00;;;;;;5073367;28;20041;-56
2021/06/16 12:49:42;;;;;;;3.78;1.40;;;33.70;56.20;;;;;;5074298;28;20040;-56
2021/06/16 12:52:11;;;;;;;3.50;1.25;;;33.00;55.50;;;;;;5074446;28;20470;-56
2021/06/16 12:54:46;;;;;;;4.35;1.30;;;33.20;56.20;;;;;;5074154;28;20437;-55